createdAt,value
2022-12-06T00:01:05.880Z,4.80
2022-12-06T00:03:33.844Z,4.50
2022-12-06T00:06:03.402Z,4.90
2022-12-06T00:08:31.430Z,4.50
2022-12-06T00:11:07.898Z,4.83
2022-12-06T00:13:39.191Z,5.13
2022-12-06T00:16:08.449Z,5.37
2022-12-06T00:18:37.578Z,5.00
2022-12-06T00:21:09.390Z,5.43
2022-12-06T00:23:38.292Z,4.87
2022-12-06T00:26:06.603Z,4.50
2022-12-06T00:28:35.257Z,4.80
2022-12-06T00:31:05.556Z,5.40
2022-12-06T00:33:34.356Z,4.50
2022-12-06T00:36:02.997Z,4.90
2022-12-06T00:38:31.168Z,4.50
2022-12-06T00:41:02.081Z,4.63
2022-12-06T00:43:30.169Z,5.00
2022-12-06T00:45:58.174Z,4.40
2022-12-06T00:48:28.106Z,4.70
2022-12-06T00:50:56.072Z,5.07
2022-12-06T00:53:24.391Z,5.07
2022-12-06T00:55:52.626Z,5.20
2022-12-06T00:58:20.696Z,4.47
2022-12-06T01:00:48.730Z,4.70
2022-12-06T01:03:16.715Z,4.57
2022-12-06T01:05:48.101Z,5.07
2022-12-06T01:08:15.988Z,4.60
2022-12-06T01:10:44.158Z,4.10
2022-12-06T01:13:12.154Z,4.37
2022-12-06T01:15:40.120Z,4.40
2022-12-06T01:18:08.181Z,4.63
2022-12-06T01:20:36.196Z,4.43
2022-12-06T01:23:05.615Z,4.23
2022-12-06T01:25:36.096Z,4.73
2022-12-06T01:28:05.200Z,4.70
2022-12-06T01:30:33.824Z,4.10
2022-12-06T01:33:01.877Z,5.00
2022-12-06T01:35:29.854Z,4.40
2022-12-06T01:38:01.624Z,4.70
2022-12-06T01:40:38.208Z,4.80
2022-12-06T01:43:06.650Z,4.90
2022-12-06T01:45:34.652Z,5.00
2022-12-06T01:48:02.590Z,4.40
2022-12-06T01:50:32.766Z,5.23
2022-12-06T01:53:02.026Z,4.80
2022-12-06T01:55:36.192Z,4.43
2022-12-06T01:58:06.576Z,4.73
2022-12-06T02:00:34.567Z,4.60
2022-12-06T02:03:03.522Z,4.30
2022-12-06T02:05:33.924Z,5.13
2022-12-06T02:08:06.184Z,4.43
2022-12-06T02:10:35.491Z,4.23
2022-12-06T02:13:03.235Z,4.47
2022-12-06T02:15:40.674Z,5.00
2022-12-06T02:18:12.145Z,4.03
2022-12-06T02:20:42.420Z,4.67
2022-12-06T02:23:38.970Z,3.80
2022-12-06T02:26:36.617Z,4.20
2022-12-06T02:29:26.188Z,4.20
2022-12-06T02:31:57.962Z,3.57
2022-12-06T02:34:30.486Z,4.20
2022-12-06T02:37:00.310Z,4.60
2022-12-06T02:39:29.562Z,3.73
2022-12-06T02:41:59.413Z,4.10
2022-12-06T02:44:28.826Z,4.00
2022-12-06T02:46:58.480Z,3.87
2022-12-06T02:49:26.928Z,3.60
2022-12-06T02:51:55.445Z,3.63
2022-12-06T02:54:23.312Z,3.70
2022-12-06T02:56:51.402Z,3.63
2022-12-06T02:59:19.059Z,4.07
2022-12-06T03:01:48.188Z,3.53
2022-12-06T03:04:32.421Z,3.80
2022-12-06T03:07:11.331Z,3.50
2022-12-06T03:09:49.667Z,3.87
2022-12-06T03:12:31.522Z,3.70
2022-12-06T03:15:06.087Z,3.77
2022-12-06T03:17:37.479Z,3.93
2022-12-06T03:20:10.027Z,3.60
2022-12-06T03:22:40.285Z,3.77
2022-12-06T03:25:08.914Z,3.30
2022-12-06T03:27:36.817Z,3.40
2022-12-06T03:30:08.711Z,3.13
2022-12-06T03:32:36.605Z,3.40
2022-12-06T03:35:09.014Z,3.43
2022-12-06T03:37:37.967Z,3.47
2022-12-06T03:40:09.639Z,3.43
2022-12-06T03:42:37.863Z,3.77
2022-12-06T03:45:06.463Z,3.63
2022-12-06T03:47:38.002Z,3.50
2022-12-06T03:50:09.822Z,3.60
2022-12-06T03:52:38.055Z,3.60
2022-12-06T03:55:06.812Z,3.60
2022-12-06T03:57:35.145Z,3.47
2022-12-06T04:00:03.765Z,3.60
2022-12-06T04:02:32.179Z,3.57
2022-12-06T04:05:00.104Z,3.37
2022-12-06T04:07:29.899Z,3.50
2022-12-06T04:10:03.440Z,3.30
2022-12-06T04:12:49.131Z,3.00
2022-12-06T04:15:17.724Z,3.50
2022-12-06T04:18:03.284Z,3.20
2022-12-06T04:20:51.738Z,3.40
2022-12-06T04:23:19.857Z,3.40
2022-12-06T04:25:47.755Z,3.40
2022-12-06T04:28:34.667Z,2.70
2022-12-06T04:31:22.319Z,2.90
2022-12-06T04:34:07.793Z,2.80
2022-12-06T04:36:53.349Z,3.33
2022-12-06T04:39:22.851Z,2.90
2022-12-06T04:42:08.003Z,2.93
2022-12-06T04:44:36.101Z,3.27
2022-12-06T04:47:03.931Z,2.90
2022-12-06T04:49:31.756Z,3.20
2022-12-06T04:51:59.624Z,2.60
2022-12-06T04:54:31.684Z,3.10
2022-12-06T04:57:00.176Z,2.70
2022-12-06T04:59:28.595Z,3.07
2022-12-06T05:01:57.543Z,3.23
2022-12-06T05:04:25.428Z,2.80
2022-12-06T05:06:54.041Z,2.80
2022-12-06T05:09:22.287Z,2.83
2022-12-06T05:11:51.447Z,3.10
2022-12-06T05:14:19.698Z,2.77
2022-12-06T05:16:47.977Z,2.60
2022-12-06T05:19:16.166Z,2.80
2022-12-06T05:21:44.628Z,2.50
2022-12-06T05:24:12.556Z,3.10
2022-12-06T05:26:40.595Z,2.80
2022-12-06T05:29:10.287Z,2.40
2022-12-06T05:31:38.331Z,2.63
2022-12-06T05:34:06.720Z,2.77
2022-12-06T05:36:34.713Z,2.60
2022-12-06T05:39:03.053Z,2.67
2022-12-06T05:41:30.951Z,2.77
2022-12-06T05:43:59.106Z,2.53
2022-12-06T05:46:28.297Z,3.20
2022-12-06T05:48:56.230Z,3.50
2022-12-06T05:51:24.331Z,3.13
2022-12-06T05:53:52.654Z,2.90
2022-12-06T05:56:20.545Z,2.73
2022-12-06T05:58:48.943Z,3.27
2022-12-06T06:01:17.342Z,2.47
2022-12-06T06:03:48.023Z,2.80
2022-12-06T06:06:16.324Z,2.97
2022-12-06T06:08:44.120Z,2.60
2022-12-06T06:11:12.312Z,2.63
2022-12-06T06:13:40.756Z,2.73
2022-12-06T06:16:09.134Z,2.40
2022-12-06T06:18:37.787Z,2.70
2022-12-06T06:21:07.863Z,2.60
2022-12-06T06:23:35.738Z,2.70
2022-12-06T06:26:08.167Z,2.60
2022-12-06T06:28:36.043Z,2.60
2022-12-06T06:31:04.645Z,2.23
2022-12-06T06:33:33.102Z,2.40
2022-12-06T06:36:01.035Z,2.90
2022-12-06T06:38:30.744Z,2.53
2022-12-06T06:40:58.648Z,2.30
2022-12-06T06:43:26.681Z,3.40
2022-12-06T06:45:55.672Z,2.37
2022-12-06T06:48:24.029Z,2.20
2022-12-06T06:50:56.886Z,2.60
2022-12-06T06:53:26.453Z,2.40
2022-12-06T06:55:55.892Z,2.30
2022-12-06T06:58:24.223Z,2.47
2022-12-06T07:00:54.038Z,2.50
2022-12-06T07:03:22.404Z,2.77
2022-12-06T07:05:53.568Z,2.30
2022-12-06T07:08:21.626Z,2.40
2022-12-06T07:10:49.870Z,2.43
2022-12-06T07:13:21.185Z,2.60
2022-12-06T07:15:49.088Z,2.20
2022-12-06T07:18:17.754Z,2.63
2022-12-06T07:20:45.572Z,2.60
2022-12-06T07:23:13.642Z,2.27
2022-12-06T07:25:41.953Z,2.33
2022-12-06T07:28:10.099Z,2.43
2022-12-06T07:30:39.603Z,2.40
2022-12-06T07:33:08.048Z,2.60
2022-12-06T07:36:10.271Z,2.17
2022-12-06T07:38:24.159Z,2.10
2022-12-06T07:41:07.712Z,2.60
2022-12-06T07:43:53.596Z,2.87
2022-12-06T07:46:22.659Z,2.37
2022-12-06T07:48:50.417Z,2.60
2022-12-06T07:51:18.435Z,2.37
2022-12-06T07:53:46.164Z,2.30
2022-12-06T07:56:13.986Z,2.50
2022-12-06T07:58:42.495Z,2.30
2022-12-06T08:01:10.330Z,2.60
2022-12-06T08:03:39.912Z,2.13
2022-12-06T08:06:08.400Z,2.93
2022-12-06T08:08:36.395Z,2.47
2022-12-06T08:11:06.344Z,2.83
2022-12-06T08:13:34.773Z,2.20
2022-12-06T08:16:06.115Z,2.57
2022-12-06T08:18:34.544Z,2.40
2022-12-06T08:21:03.831Z,2.10
2022-12-06T08:23:34.346Z,2.10
2022-12-06T08:26:03.685Z,2.43
2022-12-06T08:28:32.074Z,2.20
2022-12-06T08:31:03.306Z,2.17
2022-12-06T08:33:33.563Z,2.70
2022-12-06T08:36:02.813Z,2.03
2022-12-06T08:38:31.049Z,2.53
2022-12-06T08:40:59.207Z,2.47
2022-12-06T08:43:26.938Z,2.10
2022-12-06T08:45:55.340Z,2.10
2022-12-06T08:48:23.816Z,2.20
2022-12-06T08:50:51.733Z,2.20
2022-12-06T08:53:21.060Z,2.27
2022-12-06T08:56:02.387Z,2.07
2022-12-06T08:58:30.912Z,1.83
2022-12-06T09:00:59.435Z,2.13
2022-12-06T09:03:27.753Z,2.20
2022-12-06T09:05:55.682Z,2.27
2022-12-06T09:08:25.124Z,2.53
2022-12-06T09:10:53.233Z,1.90
2022-12-06T09:13:21.213Z,2.30
2022-12-06T09:15:49.255Z,2.30
2022-12-06T09:18:17.476Z,2.33
2022-12-06T09:20:45.301Z,2.20
2022-12-06T09:23:13.873Z,1.87
2022-12-06T09:25:44.082Z,1.90
2022-12-06T09:28:11.962Z,2.07
2022-12-06T09:30:40.503Z,1.80
2022-12-06T09:33:08.934Z,2.40
2022-12-06T09:35:36.921Z,1.60
2022-12-06T09:38:05.368Z,2.00
2022-12-06T09:40:39.852Z,1.90
2022-12-06T09:43:16.179Z,2.03
2022-12-06T09:46:23.125Z,1.90
2022-12-06T09:49:09.830Z,2.10
2022-12-06T09:51:49.078Z,1.90
2022-12-06T09:54:26.860Z,1.90
2022-12-06T09:56:58.772Z,1.97
2022-12-06T09:59:30.906Z,2.10
2022-12-06T10:02:12.328Z,1.63
2022-12-06T10:04:48.065Z,1.87
2022-12-06T10:07:19.375Z,1.73
2022-12-06T10:09:53.247Z,1.90
2022-12-06T10:12:30.781Z,2.07
2022-12-06T10:15:11.107Z,2.10
2022-12-06T10:17:46.587Z,1.80
2022-12-06T10:20:19.719Z,1.83
2022-12-06T10:22:56.873Z,1.80
2022-12-06T10:25:26.499Z,2.10
2022-12-06T10:27:59.760Z,1.87
2022-12-06T10:30:29.526Z,1.60
2022-12-06T10:33:05.303Z,1.90
2022-12-06T10:35:41.616Z,1.80
2022-12-06T10:38:15.664Z,1.80
2022-12-06T10:40:48.461Z,1.80
2022-12-06T10:43:19.086Z,1.60
2022-12-06T10:46:09.413Z,1.70
2022-12-06T10:48:39.322Z,1.80
2022-12-06T10:51:10.845Z,1.93
2022-12-06T10:53:41.548Z,2.40
2022-12-06T10:56:14.269Z,1.80
2022-12-06T10:58:44.714Z,1.93
2022-12-06T11:01:17.485Z,1.80
2022-12-06T11:03:47.980Z,1.60
2022-12-06T11:06:17.184Z,1.37
2022-12-06T11:08:46.807Z,1.43
2022-12-06T11:11:17.529Z,1.50
2022-12-06T11:13:47.624Z,1.60
2022-12-06T11:16:19.245Z,1.50
2022-12-06T11:18:47.642Z,1.77
2022-12-06T11:21:21.492Z,1.80
2022-12-06T11:23:51.824Z,1.77
2022-12-06T11:26:24.602Z,1.37
2022-12-06T11:29:00.173Z,1.70
2022-12-06T11:31:32.450Z,1.60
2022-12-06T11:34:00.540Z,1.70
2022-12-06T11:36:29.654Z,1.63
2022-12-06T11:38:57.402Z,1.67
2022-12-06T11:41:27.553Z,1.63
2022-12-06T11:43:56.086Z,1.70
2022-12-06T11:46:24.150Z,1.50
2022-12-06T11:48:54.444Z,1.40
2022-12-06T11:51:23.700Z,1.50
2022-12-06T11:54:03.949Z,1.70
2022-12-06T11:56:33.772Z,1.33
2022-12-06T11:59:09.133Z,1.60
2022-12-06T12:01:44.866Z,1.63
2022-12-06T12:04:37.372Z,1.57
2022-12-06T12:07:11.418Z,1.90
2022-12-06T12:09:47.862Z,2.47
2022-12-06T12:12:17.220Z,2.57
2022-12-06T12:14:50.914Z,2.87
2022-12-06T12:17:20.476Z,3.40
2022-12-06T12:19:51.381Z,3.20
2022-12-06T12:22:25.194Z,3.63
2022-12-06T12:25:17.747Z,3.53
2022-12-06T12:27:45.996Z,4.47
2022-12-06T12:30:32.126Z,3.80
2022-12-06T12:33:24.498Z,3.97
2022-12-06T12:35:56.515Z,4.13
2022-12-06T12:38:29.547Z,3.93
2022-12-06T12:40:58.457Z,3.70
2022-12-06T12:43:27.952Z,3.90
2022-12-06T12:46:18.180Z,3.57
2022-12-06T12:48:46.475Z,3.97
2022-12-06T12:51:35.814Z,3.53
2022-12-06T12:54:04.480Z,3.63
2022-12-06T12:56:35.041Z,3.83
2022-12-06T12:59:03.976Z,4.10
2022-12-06T13:01:38.508Z,3.50
2022-12-06T13:04:13.355Z,3.53
2022-12-06T13:06:47.036Z,4.07
2022-12-06T13:09:17.814Z,3.83
2022-12-06T13:11:47.790Z,3.87
2022-12-06T13:14:18.779Z,3.60
2022-12-06T13:16:46.958Z,3.83
2022-12-06T13:19:16.903Z,3.30
2022-12-06T13:21:46.843Z,3.10
2022-12-06T13:24:19.208Z,3.47
2022-12-06T13:26:48.367Z,3.50
2022-12-06T13:29:21.948Z,3.17
2022-12-06T13:31:50.324Z,3.30
2022-12-06T13:34:20.402Z,3.37
2022-12-06T13:36:52.170Z,3.10
2022-12-06T13:39:40.069Z,2.90
2022-12-06T13:42:21.655Z,2.77
2022-12-06T13:44:54.185Z,3.70
2022-12-06T13:47:50.371Z,3.17
2022-12-06T13:50:53.208Z,3.00
2022-12-06T13:53:22.938Z,3.50
2022-12-06T13:56:00.852Z,2.70
2022-12-06T13:58:43.864Z,2.53
2022-12-06T14:01:40.254Z,3.10
2022-12-06T14:07:00.075Z,2.63
2022-12-06T14:09:36.048Z,2.70
2022-12-06T14:12:08.544Z,2.53
2022-12-06T14:14:36.550Z,3.00
2022-12-06T14:17:05.455Z,2.93
2022-12-06T14:19:41.238Z,2.63
2022-12-06T14:22:20.208Z,2.87
2022-12-06T14:25:01.430Z,2.83
2022-12-06T14:27:30.007Z,3.17
2022-12-06T14:30:07.003Z,2.93
2022-12-06T14:32:36.526Z,3.13
2022-12-06T14:35:13.174Z,3.37
2022-12-06T14:37:41.159Z,3.00
2022-12-06T14:40:45.303Z,3.17
2022-12-06T14:43:17.307Z,3.17
2022-12-06T14:45:45.554Z,3.07
2022-12-06T14:48:13.653Z,3.53
2022-12-06T14:50:42.024Z,3.33
2022-12-06T14:53:13.063Z,3.20
2022-12-06T14:55:53.895Z,3.80
2022-12-06T14:58:22.840Z,3.50
2022-12-06T15:00:54.057Z,3.57
2022-12-06T15:03:30.765Z,3.40
2022-12-06T15:06:17.101Z,3.70
2022-12-06T15:08:47.078Z,3.50
2022-12-06T15:11:53.348Z,3.37
2022-12-06T15:14:22.840Z,3.90
2022-12-06T15:17:01.398Z,3.70
2022-12-06T15:19:29.659Z,3.60
2022-12-06T15:22:01.383Z,4.20
2022-12-06T15:24:29.409Z,4.50
2022-12-06T15:26:59.400Z,3.90
2022-12-06T15:29:27.376Z,3.80
2022-12-06T15:31:56.071Z,4.80
2022-12-06T15:34:26.755Z,4.23
2022-12-06T15:37:09.297Z,3.80
2022-12-06T15:39:42.537Z,4.10
2022-12-06T15:42:17.074Z,4.67
2022-12-06T15:44:49.064Z,4.43
2022-12-06T15:47:18.247Z,4.90
2022-12-06T15:49:46.572Z,5.00
2022-12-06T15:52:16.710Z,5.43
2022-12-06T15:54:44.948Z,5.97
2022-12-06T15:57:14.731Z,6.93
2022-12-06T15:59:43.060Z,10.47
2022-12-06T16:02:14.063Z,15.87
2022-12-06T16:04:41.823Z,13.00
2022-12-06T16:07:10.736Z,12.40
2022-12-06T16:09:39.435Z,12.80
2022-12-06T16:12:07.876Z,11.73
2022-12-06T16:14:37.629Z,10.83
2022-12-06T16:17:06.243Z,11.00
2022-12-06T16:19:47.965Z,9.60
2022-12-06T16:22:15.865Z,9.80
2022-12-06T16:24:42.822Z,11.87
2022-12-06T16:27:10.827Z,23.60
2022-12-06T16:29:40.573Z,16.70
2022-12-06T16:32:08.626Z,14.50
2022-12-06T16:34:36.456Z,13.83
2022-12-06T16:37:05.035Z,12.87
2022-12-06T16:39:33.707Z,12.10
2022-12-06T16:42:01.719Z,12.00
2022-12-06T16:44:29.408Z,12.50
2022-12-06T16:46:59.053Z,12.50
2022-12-06T16:52:15.429Z,12.47
2022-12-06T16:54:44.088Z,14.90
2022-12-06T16:57:12.756Z,17.53
2022-12-06T16:59:43.214Z,16.80
2022-12-06T17:02:24.777Z,17.90
2022-12-06T17:04:53.098Z,15.90
2022-12-06T17:07:21.058Z,13.87
2022-12-06T17:09:48.919Z,13.87
2022-12-06T17:12:16.831Z,13.97
2022-12-06T17:14:44.763Z,13.80
2022-12-06T17:17:13.526Z,13.40
2022-12-06T17:19:43.402Z,13.30
2022-12-06T17:22:11.456Z,12.20
2022-12-06T17:24:39.454Z,12.07
2022-12-06T17:27:09.144Z,11.93
2022-12-06T17:29:37.624Z,11.07
2022-12-06T17:32:06.239Z,11.57
2022-12-06T17:34:34.205Z,11.30
2022-12-06T17:37:03.984Z,11.30
2022-12-06T17:39:32.071Z,11.47
2022-12-06T17:42:17.652Z,12.63
2022-12-06T17:44:45.382Z,13.03
2022-12-06T17:47:13.401Z,12.00
2022-12-06T17:49:41.701Z,12.50
2022-12-06T17:52:11.317Z,12.70
2022-12-06T17:54:39.631Z,12.90
2022-12-06T17:57:07.824Z,13.80
2022-12-06T17:59:35.488Z,12.93
2022-12-06T18:02:19.380Z,12.73
2022-12-06T18:04:47.942Z,14.10
2022-12-06T18:07:18.089Z,15.27
2022-12-06T18:09:45.994Z,15.63
2022-12-06T18:12:14.683Z,14.33
2022-12-06T18:14:42.870Z,13.90
2022-12-06T18:17:10.544Z,14.80
2022-12-06T18:19:40.222Z,13.13
2022-12-06T18:22:08.019Z,14.50
2022-12-06T18:24:37.678Z,13.37
2022-12-06T18:27:05.540Z,14.27
2022-12-06T18:29:33.387Z,13.90
2022-12-06T18:32:01.171Z,14.27
2022-12-06T18:34:29.111Z,14.53
2022-12-06T18:36:56.818Z,15.27
2022-12-06T18:39:25.339Z,14.57
2022-12-06T18:41:55.049Z,15.00
2022-12-06T18:44:23.472Z,13.77
2022-12-06T18:46:51.948Z,14.87
2022-12-06T18:49:20.230Z,16.30
2022-12-06T18:51:48.214Z,14.90
2022-12-06T18:54:16.700Z,14.17
2022-12-06T18:56:45.056Z,13.50
2022-12-06T18:59:14.459Z,13.27
2022-12-06T19:01:42.880Z,12.43
2022-12-06T19:04:14.153Z,12.83
2022-12-06T19:06:41.990Z,13.10
2022-12-06T19:09:11.342Z,11.40
2022-12-06T19:11:39.897Z,11.50
2022-12-06T19:14:07.884Z,11.60
2022-12-06T19:16:38.639Z,14.47
2022-12-06T19:19:12.775Z,13.40
2022-12-06T19:21:44.293Z,13.50
2022-12-06T19:24:13.847Z,12.60
2022-12-06T19:26:41.807Z,11.73
2022-12-06T19:29:12.481Z,11.80
2022-12-06T19:31:41.843Z,10.97
2022-12-06T19:34:15.536Z,10.63
2022-12-06T19:36:43.413Z,10.70
2022-12-06T19:39:11.645Z,10.60
2022-12-06T19:41:53.687Z,10.00
2022-12-06T19:44:21.632Z,9.93
2022-12-06T19:46:51.059Z,8.90
2022-12-06T19:49:20.341Z,10.10
2022-12-06T19:51:51.533Z,10.00
2022-12-06T19:54:20.716Z,9.27
2022-12-06T19:56:49.285Z,9.50
2022-12-06T19:59:17.179Z,9.00
2022-12-06T20:01:46.153Z,9.87
2022-12-06T20:04:16.505Z,10.60
2022-12-06T20:06:44.407Z,8.90
2022-12-06T20:09:12.908Z,10.30
2022-12-06T20:11:54.992Z,10.03
2022-12-06T20:14:23.059Z,9.27
2022-12-06T20:16:51.035Z,9.70
2022-12-06T20:19:21.480Z,9.70
2022-12-06T20:21:49.432Z,9.87
2022-12-06T20:24:19.354Z,9.70
2022-12-06T20:26:49.209Z,9.80
2022-12-06T20:29:17.941Z,9.63
2022-12-06T20:31:45.984Z,10.53
2022-12-06T20:34:15.251Z,10.03
2022-12-06T20:36:44.705Z,9.57
2022-12-06T20:39:19.425Z,9.87
2022-12-06T20:41:47.261Z,9.67
2022-12-06T20:44:15.156Z,10.63
2022-12-06T20:46:43.152Z,11.33
2022-12-06T20:49:11.291Z,12.67
2022-12-06T20:51:39.528Z,11.30
2022-12-06T20:54:08.847Z,10.33
2022-12-06T20:56:38.230Z,10.10
2022-12-06T20:59:07.411Z,9.87
2022-12-06T21:01:36.648Z,10.47
2022-12-06T21:04:05.088Z,11.10
2022-12-06T21:06:33.002Z,10.80
2022-12-06T21:09:01.362Z,10.20
2022-12-06T21:11:30.632Z,10.40
2022-12-06T21:13:58.692Z,10.30
2022-12-06T21:16:27.780Z,10.30
2022-12-06T21:18:56.670Z,9.67
2022-12-06T21:21:25.348Z,10.13
2022-12-06T21:23:53.696Z,10.93
2022-12-06T21:26:21.609Z,10.30
2022-12-06T21:28:52.476Z,11.00
2022-12-06T21:31:20.289Z,10.63
2022-12-06T21:33:48.074Z,11.03
2022-12-06T21:36:16.063Z,11.77
2022-12-06T21:38:43.950Z,10.80
2022-12-06T21:41:12.883Z,10.43
2022-12-06T21:43:41.184Z,10.53
2022-12-06T21:46:13.180Z,10.03
2022-12-06T21:48:41.217Z,10.40
2022-12-06T21:51:09.778Z,9.80
2022-12-06T21:53:38.222Z,10.10
2022-12-06T21:56:07.422Z,8.60
2022-12-06T21:58:35.504Z,9.17
2022-12-06T22:01:07.395Z,9.87
2022-12-06T22:03:36.942Z,8.83
2022-12-06T22:06:05.975Z,9.87
2022-12-06T22:08:34.110Z,10.07
2022-12-06T22:11:02.076Z,9.83
2022-12-06T22:13:30.213Z,9.53
2022-12-06T22:16:02.052Z,9.47
2022-12-06T22:18:31.557Z,9.47
2022-12-06T22:21:02.197Z,10.07
2022-12-06T22:23:30.947Z,9.90
2022-12-06T22:25:58.814Z,9.70
2022-12-06T22:28:27.288Z,9.37
2022-12-06T22:30:55.276Z,9.77
2022-12-06T22:33:23.301Z,10.43
2022-12-06T22:35:51.842Z,9.27
2022-12-06T22:38:21.547Z,9.53
2022-12-06T22:40:56.680Z,10.67
2022-12-06T22:43:25.044Z,9.17
2022-12-06T22:45:52.915Z,10.03
2022-12-06T22:48:21.401Z,9.20
2022-12-06T22:50:49.788Z,9.40
2022-12-06T22:53:17.584Z,9.20
2022-12-06T22:55:46.823Z,9.40
2022-12-06T22:58:14.865Z,9.77
2022-12-06T23:00:42.868Z,9.60
2022-12-06T23:03:11.141Z,8.70
2022-12-06T23:05:39.207Z,8.70
2022-12-06T23:08:07.285Z,8.70
2022-12-06T23:10:35.268Z,8.03
2022-12-06T23:13:05.135Z,7.33
2022-12-06T23:15:33.027Z,6.90
2022-12-06T23:18:00.710Z,7.20
2022-12-06T23:20:28.386Z,7.43
2022-12-06T23:22:56.054Z,8.33
2022-12-06T23:25:23.851Z,7.80
2022-12-06T23:27:51.566Z,7.53
2022-12-06T23:30:21.130Z,8.50
2022-12-06T23:32:49.004Z,9.17
2022-12-06T23:35:17.053Z,7.97
2022-12-06T23:37:44.914Z,8.53
2022-12-06T23:40:13.027Z,8.40
2022-12-06T23:42:40.940Z,8.00
2022-12-06T23:45:09.698Z,8.70
2022-12-06T23:47:39.560Z,8.87
2022-12-06T23:50:08.799Z,7.97
2022-12-06T23:52:36.660Z,8.17
2022-12-06T23:55:04.572Z,8.57
2022-12-06T23:57:32.724Z,7.40
